TimeEDT,TemperatureF,Dew PointF,Humidity,Sea Level PressureIn,VisibilityMPH,Wind Direction,Wind SpeedMPH,Gust SpeedMPH,PrecipitationIn,Events,Conditions,WindDirDegrees,DateUTC
12:58 AM,76.1,73.0,90,30.01,10.0,SSW,5.8,-,N/A,,Clear,210,2013-07-21 04:58:00
1:58 AM,75.6,72.9,91,30.00,10.0,SSW,5.8,-,N/A,,Partly Cloudy,210,2013-07-21 05:58:00
2:58 AM,74.7,73.2,95,29.99,10.0,SSW,4.6,-,N/A,,Clear,210,2013-07-21 06:58:00
3:58 AM,73.4,73.4,100,29.97,10.0,SSW,4.6,-,N/A,,Clear,200,2013-07-21 07:58:00
4:49 AM,73.4,73.4,100,29.97,10.0,SW,4.6,-,N/A,,Mostly Cloudy,220,2013-07-21 08:49:00
4:56 AM,73.4,73.4,100,29.97,10.0,SSW,2.3,-,N/A,,Mostly Cloudy,210,2013-07-21 08:56:00
5:09 AM,73.4,73.4,100,29.97,10.0,SW,3.5,-,N/A,,Mostly Cloudy,230,2013-07-21 09:09:00
5:13 AM,75.2,73.4,94,29.98,10.0,SW,5.8,-,N/A,,Mostly Cloudy,220,2013-07-21 09:13:00
5:35 AM,75.2,73.4,94,29.98,10.0,WSW,5.8,-,N/A,,Overcast,240,2013-07-21 09:35:00
5:37 AM,75.2,73.4,94,29.98,10.0,SW,5.8,-,N/A,,Overcast,220,2013-07-21 09:37:00
5:49 AM,75.2,73.4,94,29.98,10.0,SW,6.9,-,N/A,,Overcast,220,2013-07-21 09:49:00
5:58 AM,74.5,74.3,99,29.99,10.0,SW,5.8,-,N/A,,Overcast,220,2013-07-21 09:58:00
6:58 AM,74.8,74.5,99,29.99,10.0,SW,4.6,-,N/A,,Overcast,230,2013-07-21 10:58:00
7:58 AM,75.4,75.0,99,30.00,10.0,WSW,5.8,-,N/A,,Overcast,240,2013-07-21 11:58:00
8:56 AM,77.0,75.2,94,30.01,10.0,WSW,4.6,-,N/A,,Mostly Cloudy,240,2013-07-21 12:56:00
8:58 AM,77.5,75.4,93,30.01,10.0,SW,4.6,-,N/A,,Mostly Cloudy,230,2013-07-21 12:58:00
9:25 AM,78.8,75.2,89,30.01,10.0,SW,5.8,-,N/A,Rain,Light Rain,220,2013-07-21 13:25:00
9:29 AM,78.8,75.2,89,30.01,10.0,SSW,5.8,-,N/A,Rain,Light Rain,200,2013-07-21 13:29:00
9:33 AM,78.8,75.2,89,30.01,10.0,SW,8.1,-,N/A,,Overcast,220,2013-07-21 13:33:00
9:58 AM,78.4,75.0,89,30.01,10.0,SSW,6.9,-,0.00,,Overcast,200,2013-07-21 13:58:00
10:58 AM,79.5,74.7,85,30.02,10.0,SW,6.9,-,N/A,,Mostly Cloudy,220,2013-07-21 14:58:00
11:50 AM,82.4,75.2,79,30.02,10.0,WSW,8.1,-,N/A,,Scattered Clouds,240,2013-07-21 15:50:00
11:58 AM,82.8,75.6,79,30.02,10.0,WSW,8.1,-,N/A,,Scattered Clouds,240,2013-07-21 15:58:00
12:58 PM,84.0,74.3,72,30.00,10.0,SSW,8.1,17.3,N/A,,Scattered Clouds,210,2013-07-21 16:58:00
1:58 PM,85.5,75.0,71,29.99,10.0,WSW,4.6,-,N/A,,Clear,240,2013-07-21 17:58:00
2:58 PM,86.7,74.5,67,29.96,10.0,West,8.1,-,N/A,,Partly Cloudy,260,2013-07-21 18:58:00
3:58 PM,88.0,73.4,62,29.93,10.0,SSW,5.8,-,N/A,,Clear,200,2013-07-21 19:58:00
4:58 PM,89.2,72.9,58,29.92,10.0,SSE,5.8,-,N/A,,Partly Cloudy,160,2013-07-21 20:58:00
5:58 PM,87.6,75.7,68,29.92,10.0,South,6.9,-,N/A,,Partly Cloudy,190,2013-07-21 21:58:00
6:58 PM,84.6,75.2,73,29.92,10.0,South,10.4,-,N/A,,Partly Cloudy,190,2013-07-21 22:58:00
7:58 PM,82.4,75.4,79,29.94,10.0,South,5.8,-,N/A,,Clear,190,2013-07-21 23:58:00
8:58 PM,81.0,76.6,87,29.97,10.0,West,4.6,-,N/A,,Scattered Clouds,270,2013-07-22 00:58:00
9:02 PM,80.6,77.0,89,29.97,10.0,West,5.8,-,N/A,,Mostly Cloudy,270,2013-07-22 01:02:00
9:50 PM,78.8,75.2,89,29.97,10.0,West,1.2,-,N/A,,Scattered Clouds,280,2013-07-22 01:50:00
9:58 PM,78.3,75.0,90,29.97,10.0,WSW,3.5,-,N/A,,Partly Cloudy,240,2013-07-22 01:58:00
10:58 PM,79.0,75.6,89,29.96,10.0,SSW,3.5,-,N/A,,Clear,200,2013-07-22 02:58:00
11:58 PM,79.2,77.0,93,29.96,10.0,SW,5.8,-,N/A,,Clear,230,2013-07-22 03:58:00